createdAt,value
2023-04-08T00:01:14.246Z,70.34
2023-04-08T00:03:41.921Z,70.76
2023-04-08T00:06:11.118Z,71.15
2023-04-08T00:08:38.662Z,70.92
2023-04-08T00:11:06.457Z,71.00
2023-04-08T00:13:34.104Z,70.73
2023-04-08T00:16:01.674Z,70.81
2023-04-08T00:18:29.337Z,70.84
2023-04-08T00:20:57.279Z,71.04
2023-04-08T00:23:26.159Z,71.66
2023-04-08T00:25:53.663Z,71.84
2023-04-08T00:28:21.183Z,71.26
2023-04-08T00:30:48.753Z,71.13
2023-04-08T00:33:16.629Z,71.27
2023-04-08T00:35:44.202Z,71.41
2023-04-08T00:38:11.842Z,71.35
2023-04-08T00:40:40.776Z,72.28
2023-04-08T00:43:08.327Z,71.79
2023-04-08T00:45:35.845Z,71.69
2023-04-08T00:48:04.273Z,71.47
2023-04-08T00:50:32.361Z,71.87
2023-04-08T00:52:59.993Z,71.53
2023-04-08T00:55:27.520Z,71.72
2023-04-08T00:57:57.222Z,71.90
2023-04-08T01:00:25.168Z,71.71
2023-04-08T01:03:02.308Z,72.54
2023-04-08T01:05:38.932Z,72.97
2023-04-08T01:08:09.341Z,72.32
2023-04-08T01:10:41.484Z,72.66
2023-04-08T01:13:13.112Z,72.72
2023-04-08T01:15:42.276Z,72.48
2023-04-08T01:18:13.482Z,72.77
2023-04-08T01:20:41.864Z,72.28
2023-04-08T01:23:19.242Z,71.65
2023-04-08T01:25:50.532Z,71.54
2023-04-08T01:28:20.115Z,71.65
2023-04-08T01:30:49.557Z,71.03
2023-04-08T01:33:19.440Z,71.31
2023-04-08T01:35:47.355Z,71.56
2023-04-08T01:38:18.999Z,72.03
2023-04-08T01:40:48.892Z,72.12
2023-04-08T01:43:18.711Z,71.95
2023-04-08T01:45:47.855Z,70.96
2023-04-08T01:48:16.290Z,71.24
2023-04-08T01:50:44.812Z,71.86
2023-04-08T01:53:13.108Z,71.88
2023-04-08T01:55:42.059Z,71.33
2023-04-08T01:58:17.790Z,72.09
2023-04-08T02:00:46.358Z,71.84
2023-04-08T02:03:15.888Z,70.83
2023-04-08T02:05:43.613Z,71.26
2023-04-08T02:08:11.110Z,71.47
2023-04-08T02:10:38.592Z,71.40
2023-04-08T02:13:06.548Z,71.25
2023-04-08T02:15:39.092Z,71.42
2023-04-08T02:18:12.237Z,72.01
2023-04-08T02:20:44.751Z,71.78
2023-04-08T02:23:17.017Z,71.30
2023-04-08T02:25:46.590Z,71.16
2023-04-08T02:28:16.224Z,71.70
2023-04-08T02:30:49.236Z,72.70
2023-04-08T02:33:20.450Z,71.34
2023-04-08T02:35:49.297Z,71.50
2023-04-08T02:38:17.035Z,71.90
2023-04-08T02:40:44.564Z,71.51
2023-04-08T02:43:12.069Z,71.67
2023-04-08T02:45:43.162Z,72.56
2023-04-08T02:48:12.179Z,72.47
2023-04-08T02:50:40.638Z,72.48
2023-04-08T02:53:10.456Z,72.36
2023-04-08T02:55:38.043Z,72.12
2023-04-08T02:58:05.638Z,72.21
2023-04-08T03:00:33.150Z,72.48
2023-04-08T03:03:01.071Z,72.38
2023-04-08T03:05:29.986Z,73.03
2023-04-08T03:07:57.536Z,72.83
2023-04-08T03:10:25.283Z,72.88
2023-04-08T03:12:53.036Z,72.53
2023-04-08T03:15:20.696Z,72.85
2023-04-08T03:17:48.343Z,72.59
2023-04-08T03:20:15.879Z,72.80
2023-04-08T03:22:44.765Z,72.87
2023-04-08T03:25:12.706Z,72.88
2023-04-08T03:27:40.231Z,72.81
2023-04-08T03:30:09.303Z,73.33
2023-04-08T03:32:36.917Z,73.05
2023-04-08T03:35:04.978Z,73.09
2023-04-08T03:37:32.690Z,73.41
2023-04-08T03:40:01.613Z,72.79
2023-04-08T03:42:29.106Z,72.93
2023-04-08T03:44:57.277Z,72.79
2023-04-08T03:47:24.821Z,72.73
2023-04-08T03:49:54.482Z,73.11
2023-04-08T03:52:22.028Z,73.33
2023-04-08T03:54:49.519Z,73.22
2023-04-08T03:57:18.390Z,73.52
2023-04-08T03:59:45.973Z,72.81
2023-04-08T04:02:13.624Z,72.91
2023-04-08T04:04:41.282Z,73.24
2023-04-08T04:07:08.810Z,73.92
2023-04-08T04:09:36.350Z,74.04
2023-04-08T04:12:03.964Z,73.46
2023-04-08T04:14:32.813Z,73.57
2023-04-08T04:17:00.332Z,73.10
2023-04-08T04:19:31.262Z,74.25
2023-04-08T04:21:58.833Z,73.26
2023-04-08T04:24:26.357Z,72.84
2023-04-08T04:26:53.864Z,73.19
2023-04-08T04:29:21.351Z,73.69
2023-04-08T04:31:50.243Z,73.94
2023-04-08T04:34:17.821Z,73.35
2023-04-08T04:36:45.982Z,73.03
2023-04-08T04:39:13.576Z,73.68
2023-04-08T04:41:41.299Z,73.59
2023-04-08T04:44:08.845Z,73.40
2023-04-08T04:46:36.463Z,72.93
2023-04-08T04:49:05.475Z,72.98
2023-04-08T04:51:33.314Z,73.05
2023-04-08T04:54:00.841Z,73.51
2023-04-08T04:56:28.501Z,73.40
2023-04-08T04:58:56.091Z,73.07
2023-04-08T05:01:23.639Z,72.82
2023-04-08T05:03:51.338Z,72.82
2023-04-08T05:06:20.328Z,72.82
2023-04-08T05:08:48.113Z,72.79
2023-04-08T05:11:18.318Z,73.58
2023-04-08T05:13:46.237Z,73.06
2023-04-08T05:16:13.970Z,72.94
2023-04-08T05:18:41.704Z,72.94
2023-04-08T05:21:09.298Z,72.75
2023-04-08T05:23:38.304Z,72.96
2023-04-08T05:26:08.285Z,73.20
2023-04-08T05:28:35.970Z,72.80
2023-04-08T05:31:03.611Z,73.39
2023-04-08T05:33:31.133Z,73.86
2023-04-08T05:35:58.768Z,73.49
2023-04-08T05:38:26.431Z,73.44
2023-04-08T05:40:55.505Z,73.55
2023-04-08T05:43:23.043Z,72.75
2023-04-08T05:45:50.620Z,73.04
2023-04-08T05:48:18.142Z,72.91
2023-04-08T05:50:46.544Z,73.06
2023-04-08T05:53:14.034Z,72.28
2023-04-08T05:55:41.621Z,72.78
2023-04-08T05:58:10.591Z,72.19
2023-04-08T06:00:38.223Z,72.82
2023-04-08T06:03:05.960Z,71.73
2023-04-08T06:05:33.784Z,71.71
2023-04-08T06:08:01.454Z,71.32
2023-04-08T06:10:29.104Z,71.26
2023-04-08T06:12:56.753Z,71.76
2023-04-08T06:15:27.027Z,71.59
2023-04-08T06:17:54.585Z,71.09
2023-04-08T06:20:22.282Z,70.58
2023-04-08T06:22:49.875Z,71.06
2023-04-08T06:25:17.889Z,71.04
2023-04-08T06:27:45.679Z,70.81
2023-04-08T06:30:13.765Z,71.06
2023-04-08T06:32:42.845Z,70.71
2023-04-08T06:35:11.271Z,70.69
2023-04-08T06:37:38.988Z,70.29
2023-04-08T06:40:07.776Z,70.22
2023-04-08T06:42:35.997Z,69.98
2023-04-08T06:45:03.588Z,69.60
2023-04-08T06:47:31.455Z,69.21
2023-04-08T06:50:00.495Z,69.19
2023-04-08T06:52:28.040Z,68.60
2023-04-08T06:54:55.905Z,68.17
2023-04-08T06:57:23.529Z,68.03
2023-04-08T06:59:51.131Z,68.18
2023-04-08T07:02:18.727Z,67.18
2023-04-08T07:04:46.924Z,67.85
2023-04-08T07:07:16.122Z,66.88
2023-04-08T07:09:45.900Z,67.05
2023-04-08T07:12:13.880Z,67.39
2023-04-08T07:14:41.407Z,67.22
2023-04-08T07:17:09.071Z,66.95
2023-04-08T07:19:37.523Z,66.94
2023-04-08T07:22:05.360Z,67.00
2023-04-08T07:24:34.341Z,66.36
2023-04-08T07:27:02.089Z,66.40
2023-04-08T07:29:29.609Z,65.88
2023-04-08T07:31:57.089Z,65.70
2023-04-08T07:34:24.612Z,64.43
2023-04-08T07:36:52.117Z,63.52
2023-04-08T07:39:19.676Z,63.12
2023-04-08T07:41:48.591Z,64.03
2023-04-08T07:44:17.273Z,63.51
2023-04-08T07:46:49.271Z,63.90
2023-04-08T07:49:16.770Z,64.00
2023-04-08T07:51:44.358Z,64.88
2023-04-08T07:54:12.635Z,64.22
2023-04-08T07:56:40.591Z,63.44
2023-04-08T07:59:09.557Z,62.27
2023-04-08T08:01:37.123Z,64.00
2023-04-08T08:04:05.119Z,62.37
2023-04-08T08:06:33.276Z,62.95
2023-04-08T08:09:01.181Z,61.84
2023-04-08T08:11:28.745Z,61.99
2023-04-08T08:13:56.931Z,60.78
2023-04-08T08:16:29.596Z,61.15
2023-04-08T08:18:57.008Z,61.14
2023-04-08T08:21:25.028Z,61.73
2023-04-08T08:23:53.215Z,60.66
2023-04-08T08:26:21.193Z,60.40
2023-04-08T08:28:48.747Z,59.47
2023-04-08T08:31:16.420Z,59.71
2023-04-08T08:33:46.005Z,58.54
2023-04-08T08:36:13.614Z,58.16
2023-04-08T08:38:41.199Z,57.94
2023-04-08T08:41:08.718Z,57.33
2023-04-08T08:43:36.294Z,56.45
2023-04-08T08:46:04.277Z,55.87
2023-04-08T08:48:32.621Z,56.48
2023-04-08T08:51:01.724Z,55.94
2023-04-08T08:53:34.284Z,56.33
2023-04-08T08:58:34.123Z,56.79
2023-04-08T09:01:01.702Z,52.30
2023-04-08T09:03:30.142Z,50.72
2023-04-08T09:05:59.199Z,48.88
2023-04-08T09:08:30.365Z,47.71
2023-04-08T09:11:11.870Z,48.57
2023-04-08T09:13:39.971Z,50.24
2023-04-08T09:16:08.961Z,49.10
2023-04-08T09:18:37.502Z,49.42
2023-04-08T09:21:06.583Z,49.57
2023-04-08T09:23:41.038Z,48.56
2023-04-08T09:26:10.267Z,49.40
2023-04-08T09:28:38.029Z,49.64
2023-04-08T09:31:20.830Z,49.12
2023-04-08T09:33:49.037Z,49.63
2023-04-08T09:36:17.066Z,50.66
2023-04-08T09:38:46.813Z,50.12
2023-04-08T09:41:16.725Z,50.34
2023-04-08T09:43:49.671Z,50.85
2023-04-08T09:46:19.438Z,50.73
2023-04-08T09:48:52.244Z,51.24
2023-04-08T09:51:21.630Z,50.36
2023-04-08T09:54:00.989Z,51.10
2023-04-08T09:56:37.436Z,50.12
2023-04-08T09:59:13.046Z,49.55
2023-04-08T10:01:46.183Z,49.92
2023-04-08T10:04:18.288Z,48.91
2023-04-08T10:06:47.543Z,49.27
2023-04-08T10:09:16.889Z,49.22
2023-04-08T10:11:45.106Z,49.66
2023-04-08T10:14:12.991Z,50.30
2023-04-08T10:16:41.365Z,50.39
2023-04-08T10:19:43.091Z,50.26
2023-04-08T10:22:47.917Z,50.47
2023-04-08T10:25:36.589Z,50.60
2023-04-08T10:28:27.341Z,50.97
2023-04-08T10:30:56.631Z,51.18
2023-04-08T10:33:25.974Z,52.11
2023-04-08T10:36:02.884Z,52.60
2023-04-08T10:38:30.558Z,53.15
2023-04-08T10:40:59.392Z,52.67
2023-04-08T10:43:27.101Z,52.12
2023-04-08T10:45:54.998Z,52.39
2023-04-08T10:48:24.585Z,51.49
2023-04-08T10:50:56.649Z,51.11
2023-04-08T10:53:28.775Z,51.07
2023-04-08T10:56:04.265Z,51.38
2023-04-08T10:58:33.406Z,51.46
2023-04-08T11:01:05.209Z,51.50
2023-04-08T11:03:34.731Z,51.55
2023-04-08T11:06:03.440Z,51.53
2023-04-08T11:08:32.398Z,51.56
2023-04-08T11:11:01.234Z,51.84
2023-04-08T11:13:29.238Z,52.35
2023-04-08T11:15:59.378Z,52.35
2023-04-08T11:18:27.267Z,52.21
2023-04-08T11:20:56.400Z,52.35
2023-04-08T11:23:26.450Z,52.50
2023-04-08T11:25:54.784Z,52.53
2023-04-08T11:28:23.769Z,52.83
2023-04-08T11:30:51.824Z,52.98
2023-04-08T11:33:21.581Z,53.13
2023-04-08T11:35:53.392Z,53.56
2023-04-08T11:38:24.311Z,53.60
2023-04-08T11:40:55.082Z,53.23
2023-04-08T11:43:23.386Z,53.38
2023-04-08T11:45:51.470Z,53.53
2023-04-08T11:48:20.433Z,53.70
2023-04-08T11:50:48.213Z,53.76
2023-04-08T11:53:20.355Z,54.22
2023-04-08T11:55:48.456Z,54.07
2023-04-08T11:58:16.409Z,54.83
2023-04-08T12:00:45.560Z,54.71
2023-04-08T12:03:14.111Z,54.70
2023-04-08T12:05:43.583Z,54.81
2023-04-08T12:08:11.479Z,54.81
2023-04-08T12:10:39.483Z,55.29
2023-04-08T12:13:07.326Z,54.59
2023-04-08T12:15:35.131Z,54.72
2023-04-08T12:18:02.750Z,54.85
2023-04-08T12:20:30.439Z,54.85
2023-04-08T12:22:59.731Z,55.38
2023-04-08T12:25:27.908Z,55.10
2023-04-08T12:27:55.865Z,55.32
2023-04-08T12:30:23.688Z,55.26
2023-04-08T12:32:51.559Z,55.21
2023-04-08T12:35:19.579Z,55.02
2023-04-08T12:37:47.476Z,55.79
2023-04-08T12:40:19.288Z,55.49
2023-04-08T12:42:47.092Z,55.45
2023-04-08T12:45:15.102Z,55.65
2023-04-08T12:47:43.039Z,55.86
2023-04-08T12:50:11.641Z,56.05
2023-04-08T12:52:39.490Z,56.34
2023-04-08T12:55:08.297Z,56.54
2023-04-08T12:57:37.597Z,57.17
2023-04-08T13:00:06.644Z,56.41
2023-04-08T13:02:34.593Z,56.35
2023-04-08T13:05:02.543Z,56.55
2023-04-08T13:07:30.637Z,56.72
2023-04-08T13:09:58.509Z,56.76
2023-04-08T13:12:27.126Z,56.77
2023-04-08T13:14:56.402Z,56.87
2023-04-08T13:17:24.542Z,57.06
2023-04-08T13:19:52.517Z,56.94
2023-04-08T13:22:20.497Z,56.67
2023-04-08T13:24:48.061Z,57.30
2023-04-08T13:27:16.133Z,57.22
2023-04-08T13:29:43.774Z,57.41
2023-04-08T13:32:13.114Z,57.65
2023-04-08T13:34:42.513Z,57.86
2023-04-08T13:37:10.371Z,57.60
2023-04-08T13:39:37.913Z,57.64
2023-04-08T13:42:05.582Z,57.58
2023-04-08T13:44:33.535Z,57.77
2023-04-08T13:47:01.089Z,57.88
2023-04-08T13:49:29.990Z,57.83
2023-04-08T13:51:57.955Z,57.95
2023-04-08T13:54:26.079Z,58.05
2023-04-08T13:56:54.029Z,58.64
2023-04-08T13:59:21.921Z,58.40
2023-04-08T14:01:53.886Z,58.21
2023-04-08T14:04:22.094Z,58.60
2023-04-08T14:06:53.243Z,58.52
2023-04-08T14:09:21.890Z,58.65
2023-04-08T14:11:49.721Z,58.54
2023-04-08T14:14:17.308Z,58.73
2023-04-08T14:16:45.103Z,58.79
2023-04-08T14:19:12.804Z,59.04
2023-04-08T14:21:40.500Z,58.98
2023-04-08T14:24:09.590Z,59.13
2023-04-08T14:26:37.381Z,58.64
2023-04-08T14:29:05.859Z,58.54
2023-04-08T14:31:33.887Z,58.44
2023-04-08T14:34:01.773Z,58.58
2023-04-08T14:36:30.230Z,58.72
2023-04-08T14:38:57.798Z,58.63
2023-04-08T14:41:27.323Z,58.79
2023-04-08T14:43:54.966Z,58.58
2023-04-08T14:46:23.044Z,58.50
2023-04-08T14:48:51.259Z,58.75
2023-04-08T14:51:19.407Z,58.64
2023-04-08T14:53:47.203Z,58.87
2023-04-08T14:56:14.890Z,59.41
2023-04-08T14:58:44.481Z,59.32
2023-04-08T15:01:12.400Z,59.20
2023-04-08T15:03:40.712Z,58.92
2023-04-08T15:06:08.586Z,58.72
2023-04-08T15:08:36.441Z,58.41
2023-04-08T15:11:04.704Z,58.57
2023-04-08T15:13:32.493Z,58.67
2023-04-08T15:16:01.540Z,59.24
2023-04-08T15:18:29.520Z,59.06
2023-04-08T15:20:58.197Z,59.33
2023-04-08T15:23:25.876Z,59.23
2023-04-08T15:25:53.497Z,60.51
2023-04-08T15:28:21.210Z,60.03
2023-04-08T15:30:50.780Z,60.30
2023-04-08T15:33:20.677Z,60.23
2023-04-08T15:35:48.736Z,60.38
2023-04-08T15:38:17.649Z,60.78
2023-04-08T15:40:47.478Z,60.33
2023-04-08T15:43:15.686Z,59.80
2023-04-08T15:45:44.093Z,59.50
2023-04-08T15:48:13.158Z,59.73
2023-04-08T15:50:42.616Z,59.93
2023-04-08T15:53:10.389Z,60.15
2023-04-08T15:55:41.775Z,59.70
2023-04-08T15:58:09.438Z,59.35
2023-04-08T16:00:37.335Z,59.66
2023-04-08T16:03:05.553Z,59.60
2023-04-08T16:05:35.791Z,59.82
2023-04-08T16:08:06.255Z,61.08
2023-04-08T16:10:34.219Z,60.25
2023-04-08T16:13:01.835Z,60.03
2023-04-08T16:15:29.332Z,60.86
2023-04-08T16:17:56.843Z,60.76
2023-04-08T16:20:24.364Z,60.78
2023-04-08T16:22:51.987Z,59.93
2023-04-08T16:25:21.065Z,59.22
2023-04-08T16:27:49.033Z,59.36
2023-04-08T16:30:16.662Z,59.14
2023-04-08T16:32:44.203Z,59.45
2023-04-08T16:35:12.282Z,60.14
2023-04-08T16:37:39.820Z,60.22
2023-04-08T16:40:08.480Z,61.40
2023-04-08T16:42:37.326Z,60.25
2023-04-08T16:45:05.819Z,61.06
2023-04-08T16:47:33.353Z,61.35
2023-04-08T16:50:01.041Z,61.13
2023-04-08T16:52:28.570Z,60.05
2023-04-08T16:54:57.246Z,60.17
2023-04-08T16:57:24.851Z,60.06
2023-04-08T16:59:54.023Z,60.57
2023-04-08T17:02:22.756Z,60.28
2023-04-08T17:04:50.862Z,61.42
2023-04-08T17:07:18.413Z,60.72
2023-04-08T17:09:51.257Z,60.47
2023-04-08T17:12:18.835Z,60.62
2023-04-08T17:14:46.313Z,61.52
2023-04-08T17:17:15.434Z,61.09
2023-04-08T17:19:43.072Z,60.99
2023-04-08T17:22:10.630Z,62.18
2023-04-08T17:24:38.144Z,62.63
2023-04-08T17:27:05.619Z,62.05
2023-04-08T17:29:33.154Z,62.25
2023-04-08T17:32:00.813Z,62.05
2023-04-08T17:34:31.357Z,61.55
2023-04-08T17:36:58.887Z,61.85
2023-04-08T17:39:26.618Z,62.39
2023-04-08T17:41:54.127Z,62.14
2023-04-08T17:44:22.192Z,61.95
2023-04-08T17:46:50.110Z,61.58
2023-04-08T17:49:18.530Z,61.55
2023-04-08T17:51:47.372Z,61.43
2023-04-08T17:54:15.656Z,61.41
2023-04-08T17:56:44.942Z,62.13
2023-04-08T17:59:13.031Z,62.67
2023-04-08T18:01:40.828Z,62.08
2023-04-08T18:04:10.291Z,61.97
2023-04-08T18:06:37.953Z,62.02
2023-04-08T18:09:06.821Z,62.59
2023-04-08T18:11:34.321Z,62.56
2023-04-08T18:14:01.833Z,63.35
2023-04-08T18:16:29.414Z,63.42
2023-04-08T18:18:57.001Z,62.65
2023-04-08T18:21:24.548Z,62.94
2023-04-08T18:23:52.356Z,63.52
2023-04-08T18:26:21.434Z,63.88
2023-04-08T18:28:48.959Z,63.31
2023-04-08T18:31:16.676Z,63.93
2023-04-08T18:33:44.289Z,63.12
2023-04-08T18:36:13.945Z,62.62
2023-04-08T18:38:41.839Z,62.86
2023-04-08T18:41:09.434Z,62.74
2023-04-08T18:43:38.579Z,63.26
2023-04-08T18:46:06.471Z,63.06
2023-04-08T18:48:34.151Z,63.14
2023-04-08T18:51:02.561Z,63.26
2023-04-08T18:53:30.637Z,63.15
2023-04-08T18:55:58.293Z,63.17
2023-04-08T18:58:27.087Z,63.37
2023-04-08T19:00:55.965Z,63.92
2023-04-08T19:03:23.629Z,63.29
2023-04-08T19:05:51.416Z,63.43
2023-04-08T19:08:18.915Z,63.26
2023-04-08T19:10:46.519Z,65.04
2023-04-08T19:13:14.000Z,63.96
2023-04-08T19:15:41.531Z,63.77
2023-04-08T19:18:10.476Z,64.04
2023-04-08T19:20:37.949Z,65.14
2023-04-08T19:23:05.774Z,65.06
2023-04-08T19:25:33.354Z,65.10
2023-04-08T19:28:00.915Z,65.75
2023-04-08T19:30:28.404Z,66.04
2023-04-08T19:32:55.946Z,65.55
2023-04-08T19:35:25.182Z,65.04
2023-04-08T19:37:52.706Z,64.42
2023-04-08T19:40:20.482Z,64.67
2023-04-08T19:42:48.001Z,65.54
2023-04-08T19:45:15.765Z,65.60
2023-04-08T19:47:43.836Z,65.10
2023-04-08T19:50:12.797Z,65.93
2023-04-08T19:52:41.743Z,65.36
2023-04-08T19:55:10.097Z,65.06
2023-04-08T19:57:37.797Z,65.22
2023-04-08T20:00:05.880Z,65.63
2023-04-08T20:02:33.594Z,66.02
2023-04-08T20:05:01.855Z,66.63
2023-04-08T20:07:29.389Z,66.14
2023-04-08T20:09:58.194Z,66.59
2023-04-08T20:12:25.740Z,66.33
2023-04-08T20:14:53.249Z,66.77
2023-04-08T20:17:21.652Z,66.96
2023-04-08T20:19:49.201Z,67.44
2023-04-08T20:22:17.409Z,67.43
2023-04-08T20:24:44.986Z,67.77
2023-04-08T20:27:13.862Z,67.99
2023-04-08T20:29:42.739Z,68.07
2023-04-08T20:32:10.326Z,68.13
2023-04-08T20:34:37.836Z,68.51
2023-04-08T20:37:05.800Z,68.54
2023-04-08T20:39:33.308Z,68.28
2023-04-08T20:42:00.848Z,68.58
2023-04-08T20:44:29.801Z,68.95
2023-04-08T20:46:58.011Z,69.13
2023-04-08T20:49:25.740Z,69.80
2023-04-08T20:51:53.249Z,69.49
2023-04-08T20:54:20.913Z,69.27
2023-04-08T20:56:48.417Z,69.62
2023-04-08T20:59:16.003Z,69.58
2023-04-08T21:01:44.959Z,70.06
2023-04-08T21:04:13.309Z,69.11
2023-04-08T21:06:41.964Z,68.86
2023-04-08T21:09:11.248Z,69.42
2023-04-08T21:11:38.775Z,69.88
2023-04-08T21:14:06.340Z,69.92
2023-04-08T21:16:33.844Z,70.06
2023-04-08T21:19:04.004Z,70.11
2023-04-08T21:21:32.198Z,69.97
2023-04-08T21:24:00.518Z,70.24
2023-04-08T21:26:28.141Z,70.51
2023-04-08T21:28:55.731Z,70.67
2023-04-08T21:31:23.312Z,70.69
2023-04-08T21:33:50.817Z,71.05
2023-04-08T21:36:20.342Z,71.03
2023-04-08T21:38:47.920Z,70.66
2023-04-08T21:41:15.591Z,70.43
2023-04-08T21:43:43.052Z,70.51
2023-04-08T21:46:10.574Z,70.39
2023-04-08T21:48:38.122Z,70.61
2023-04-08T21:51:06.943Z,70.33
2023-04-08T21:53:36.003Z,70.66
2023-04-08T21:56:03.589Z,70.23
2023-04-08T21:58:31.204Z,70.65
2023-04-08T22:00:59.168Z,70.81
2023-04-08T22:03:27.571Z,70.97
2023-04-08T22:05:55.245Z,70.96
2023-04-08T22:08:23.022Z,71.18
2023-04-08T22:10:51.923Z,71.51
2023-04-08T22:13:20.543Z,71.44
2023-04-08T22:15:48.038Z,71.54
2023-04-08T22:18:15.548Z,71.53
2023-04-08T22:20:43.114Z,71.91
2023-04-08T22:23:10.781Z,72.17
2023-04-08T22:25:38.287Z,72.41
2023-04-08T22:28:07.148Z,72.77
2023-04-08T22:30:34.740Z,72.19
2023-04-08T22:33:02.312Z,72.45
2023-04-08T22:35:29.971Z,72.58
2023-04-08T22:37:57.529Z,72.49
2023-04-08T22:40:25.032Z,72.55
2023-04-08T22:42:52.512Z,72.36
2023-04-08T22:45:21.631Z,72.54
2023-04-08T22:47:49.173Z,72.35
2023-04-08T22:50:16.743Z,72.57
2023-04-08T22:52:44.223Z,72.62
2023-04-08T22:55:12.134Z,72.67
2023-04-08T22:57:39.713Z,72.41
2023-04-08T23:00:09.318Z,72.00
2023-04-08T23:02:38.394Z,71.84
2023-04-08T23:05:06.720Z,71.93
2023-04-08T23:07:34.284Z,72.09
2023-04-08T23:10:01.788Z,71.81
2023-04-08T23:12:29.295Z,71.69
2023-04-08T23:14:56.834Z,71.51
2023-04-08T23:17:24.334Z,71.28
2023-04-08T23:19:53.524Z,70.79
2023-04-08T23:22:21.242Z,70.88
2023-04-08T23:24:48.742Z,69.88
2023-04-08T23:27:16.229Z,69.08
2023-04-08T23:29:43.695Z,69.52
2023-04-08T23:32:11.253Z,69.29
2023-04-08T23:34:38.876Z,69.61
2023-04-08T23:37:07.762Z,69.65
2023-04-08T23:39:35.322Z,69.59
2023-04-08T23:42:02.982Z,69.51
2023-04-08T23:44:30.504Z,69.75
2023-04-08T23:46:57.984Z,70.00
2023-04-08T23:49:25.505Z,70.01
2023-04-08T23:51:53.558Z,70.19
2023-04-08T23:54:22.614Z,69.95
2023-04-08T23:56:50.193Z,69.88
2023-04-08T23:59:17.730Z,69.90
